White, PA (15490)

5:41 PM EST on January 20, 2017 (GMT -0500)
Donegal | | Change Station

Elev 1762 ft 40.09 °N, 79.39 °W | Updated 8 seconds ago

Overcast
Overcast
53.1 °F
Feels Like 53.1 °F
N
0.0
Wind Variable Wind from SSW
Gusts 0.0 mph

Today
High -- | Low -- °F
--% Chance of Precip.
Yesterday
High -- | Low -- °F
Precip. -- in
Pressure 29.77 in
Visibility 8.0 miles
Clouds Mostly Cloudy 2600 ft
Dew Point 48 °F
Humidity 84%
Rainfall 0.15 in
Snow Depth Not available.
7:35 AM 5:22 PM
Last Quarter, 40% visible
METAR KLBE 202150Z 24008KT 8SM BKN026 13/11 A2977
Pressure 29.77 in
Visibility 8.0 miles
Clouds Mostly Cloudy 2600 ft
Dew Point 48 °F
Humidity 84%
Rainfall 0.15 in
Snow Depth Not available.
7:35 AM 5:22 PM
Last Quarter, 40% visible
METAR KLBE 202150Z 24008KT 8SM BKN026 13/11 A2977

Get Your Daily Forecast Email!

Thanks for signing up!

Be on the lookout for a verification email in your inbox.

You'll start receiving the daily forecast at 8 AM.

×

10-Day Weather Forecast

Almanac

Astronomy

Jan. 20, 2017 Rise Set
Actual Time
Civil Twilight
Nautical Twilight
Astronomical Twilight
Moon
Length of Visible Light
Length of Day
Tomorrow will be .
, % of the Moon is Illuminated

Today's Extremes

State Highs State Lows

Community

WunderPhotos

Upload Photos

1,962,540 photos uploaded!

WunderBlog® & News

Nearby

Air Quality

  Air Quality AQ Index Pollutant
Not available.

Snow Depth

Station Depth Elevation

Earthquake Activity

City Distance Mag. Time & Date
Minimum magnitude displayed is 2.5.

Coastal Water Temperatures

Place Temperature

Stations

Nearby Weather Stations

Station Location Temp. Windchill Dew Point Humidity Wind Precip. Elev Updated Type
                   

Watches & Warnings

There are currently no watches in effect.